sensor_id;sensor_type;location;lat;lon;timestamp;P1;durP1;ratioP1;P2;durP2;ratioP2
17714;SDS011;8977;50.902;4.314;2023-06-24T00:02:18;6.03;;;5.32;;
17714;SDS011;8977;50.902;4.314;2023-06-24T00:04:49;6.28;;;4.60;;
17714;SDS011;8977;50.902;4.314;2023-06-24T00:07:16;6.93;;;4.40;;
17714;SDS011;8977;50.902;4.314;2023-06-24T00:09:44;5.20;;;4.63;;
17714;SDS011;8977;50.902;4.314;2023-06-24T00:12:13;6.05;;;5.18;;
17714;SDS011;8977;50.902;4.314;2023-06-24T00:14:44;6.43;;;4.70;;
17714;SDS011;8977;50.902;4.314;2023-06-24T00:17:12;4.63;;;4.13;;
17714;SDS011;8977;50.902;4.314;2023-06-24T00:19:38;4.93;;;4.43;;
17714;SDS011;8977;50.902;4.314;2023-06-24T00:22:05;4.63;;;4.03;;
17714;SDS011;8977;50.902;4.314;2023-06-24T00:24:32;4.28;;;3.88;;
17714;SDS011;8977;50.902;4.314;2023-06-24T00:26:59;6.30;;;4.60;;
17714;SDS011;8977;50.902;4.314;2023-06-24T00:29:27;5.88;;;4.63;;
17714;SDS011;8977;50.902;4.314;2023-06-24T00:31:54;4.85;;;3.58;;
17714;SDS011;8977;50.902;4.314;2023-06-24T00:34:21;4.32;;;3.90;;
17714;SDS011;8977;50.902;4.314;2023-06-24T00:36:48;3.95;;;3.55;;
17714;SDS011;8977;50.902;4.314;2023-06-24T00:39:16;4.13;;;3.47;;
17714;SDS011;8977;50.902;4.314;2023-06-24T00:41:43;3.38;;;3.05;;
17714;SDS011;8977;50.902;4.314;2023-06-24T00:44:10;5.18;;;3.42;;
17714;SDS011;8977;50.902;4.314;2023-06-24T00:46:38;4.45;;;3.30;;
17714;SDS011;8977;50.902;4.314;2023-06-24T00:49:05;5.18;;;3.40;;
17714;SDS011;8977;50.902;4.314;2023-06-24T00:51:33;6.45;;;3.45;;
17714;SDS011;8977;50.902;4.314;2023-06-24T00:54:01;4.38;;;3.80;;
17714;SDS011;8977;50.902;4.314;2023-06-24T00:56:29;4.13;;;3.50;;
17714;SDS011;8977;50.902;4.314;2023-06-24T00:59:00;3.45;;;3.03;;
17714;SDS011;8977;50.902;4.314;2023-06-24T01:01:28;4.28;;;3.33;;
17714;SDS011;8977;50.902;4.314;2023-06-24T01:04:00;4.90;;;3.28;;
17714;SDS011;8977;50.902;4.314;2023-06-24T01:06:29;3.50;;;3.20;;
17714;SDS011;8977;50.902;4.314;2023-06-24T01:08:57;6.03;;;3.63;;
17714;SDS011;8977;50.902;4.314;2023-06-24T01:11:25;5.82;;;3.40;;
17714;SDS011;8977;50.902;4.314;2023-06-24T01:13:52;4.22;;;3.15;;
17714;SDS011;8977;50.902;4.314;2023-06-24T01:16:21;3.92;;;3.22;;
17714;SDS011;8977;50.902;4.314;2023-06-24T01:18:55;3.40;;;2.95;;
17714;SDS011;8977;50.902;4.314;2023-06-24T01:21:31;4.97;;;3.50;;
17714;SDS011;8977;50.902;4.314;2023-06-24T01:24:17;3.42;;;3.13;;
17714;SDS011;8977;50.902;4.314;2023-06-24T01:30:12;3.17;;;2.88;;
17714;SDS011;8977;50.902;4.314;2023-06-24T01:32:54;4.75;;;3.03;;
17714;SDS011;8977;50.902;4.314;2023-06-24T01:35:28;3.53;;;2.97;;
17714;SDS011;8977;50.902;4.314;2023-06-24T01:37:58;4.95;;;3.05;;
17714;SDS011;8977;50.902;4.314;2023-06-24T01:40:30;3.50;;;3.13;;
17714;SDS011;8977;50.902;4.314;2023-06-24T01:43:02;6.07;;;3.72;;
17714;SDS011;8977;50.902;4.314;2023-06-24T01:45:32;3.97;;;3.10;;
17714;SDS011;8977;50.902;4.314;2023-06-24T01:48:06;3.55;;;3.25;;
17714;SDS011;8977;50.902;4.314;2023-06-24T01:50:37;5.68;;;3.42;;
17714;SDS011;8977;50.902;4.314;2023-06-24T01:53:07;3.88;;;3.25;;
17714;SDS011;8977;50.902;4.314;2023-06-24T01:55:36;4.63;;;3.80;;
17714;SDS011;8977;50.902;4.314;2023-06-24T01:58:07;4.05;;;3.45;;
17714;SDS011;8977;50.902;4.314;2023-06-24T02:00:38;6.00;;;3.78;;
17714;SDS011;8977;50.902;4.314;2023-06-24T02:03:07;4.28;;;3.47;;
17714;SDS011;8977;50.902;4.314;2023-06-24T02:05:36;3.53;;;3.17;;
17714;SDS011;8977;50.902;4.314;2023-06-24T02:08:06;5.20;;;3.33;;
17714;SDS011;8977;50.902;4.314;2023-06-24T02:10:36;3.92;;;3.53;;
17714;SDS011;8977;50.902;4.314;2023-06-24T02:13:04;5.97;;;3.20;;
17714;SDS011;8977;50.902;4.314;2023-06-24T02:15:32;4.97;;;3.75;;
17714;SDS011;8977;50.902;4.314;2023-06-24T02:18:01;4.97;;;3.88;;
17714;SDS011;8977;50.902;4.314;2023-06-24T02:20:31;4.35;;;3.50;;
17714;SDS011;8977;50.902;4.314;2023-06-24T02:22:59;5.38;;;3.30;;
17714;SDS011;8977;50.902;4.314;2023-06-24T02:25:27;4.50;;;3.63;;
17714;SDS011;8977;50.902;4.314;2023-06-24T02:27:54;5.00;;;3.60;;
17714;SDS011;8977;50.902;4.314;2023-06-24T02:30:22;9.55;;;4.18;;
17714;SDS011;8977;50.902;4.314;2023-06-24T02:32:50;4.15;;;3.35;;
17714;SDS011;8977;50.902;4.314;2023-06-24T02:35:17;4.68;;;3.80;;
17714;SDS011;8977;50.902;4.314;2023-06-24T02:37:46;4.32;;;3.45;;
17714;SDS011;8977;50.902;4.314;2023-06-24T02:40:15;4.10;;;3.70;;
17714;SDS011;8977;50.902;4.314;2023-06-24T02:42:42;5.47;;;3.80;;
17714;SDS011;8977;50.902;4.314;2023-06-24T02:45:09;4.35;;;3.72;;
17714;SDS011;8977;50.902;4.314;2023-06-24T02:47:37;5.65;;;3.53;;
17714;SDS011;8977;50.902;4.314;2023-06-24T02:50:06;6.13;;;3.80;;
17714;SDS011;8977;50.902;4.314;2023-06-24T02:52:35;4.15;;;3.53;;
17714;SDS011;8977;50.902;4.314;2023-06-24T02:55:05;4.20;;;3.47;;
17714;SDS011;8977;50.902;4.314;2023-06-24T02:57:34;4.70;;;4.20;;
17714;SDS011;8977;50.902;4.314;2023-06-24T03:00:02;4.95;;;3.47;;
17714;SDS011;8977;50.902;4.314;2023-06-24T03:02:34;5.20;;;3.55;;
17714;SDS011;8977;50.902;4.314;2023-06-24T03:05:02;4.22;;;3.70;;
17714;SDS011;8977;50.902;4.314;2023-06-24T03:07:30;4.50;;;3.90;;
17714;SDS011;8977;50.902;4.314;2023-06-24T03:10:00;5.53;;;4.60;;
17714;SDS011;8977;50.902;4.314;2023-06-24T03:12:29;4.50;;;3.95;;
17714;SDS011;8977;50.902;4.314;2023-06-24T03:14:56;4.50;;;3.90;;
17714;SDS011;8977;50.902;4.314;2023-06-24T03:17:23;5.43;;;3.72;;
17714;SDS011;8977;50.902;4.314;2023-06-24T03:19:50;5.75;;;3.97;;
17714;SDS011;8977;50.902;4.314;2023-06-24T03:22:17;6.03;;;3.88;;
17714;SDS011;8977;50.902;4.314;2023-06-24T03:24:44;4.90;;;4.05;;
17714;SDS011;8977;50.902;4.314;2023-06-24T03:27:11;5.13;;;4.13;;
17714;SDS011;8977;50.902;4.314;2023-06-24T03:29:41;4.63;;;4.10;;
17714;SDS011;8977;50.902;4.314;2023-06-24T03:32:08;4.47;;;3.83;;
17714;SDS011;8977;50.902;4.314;2023-06-24T03:34:34;4.53;;;3.42;;
17714;SDS011;8977;50.902;4.314;2023-06-24T03:37:02;5.13;;;3.90;;
17714;SDS011;8977;50.902;4.314;2023-06-24T03:39:30;4.95;;;3.53;;
17714;SDS011;8977;50.902;4.314;2023-06-24T03:41:57;5.57;;;3.90;;
17714;SDS011;8977;50.902;4.314;2023-06-24T03:44:24;6.50;;;4.10;;
17714;SDS011;8977;50.902;4.314;2023-06-24T03:46:52;5.68;;;3.67;;
17714;SDS011;8977;50.902;4.314;2023-06-24T03:49:19;4.57;;;3.17;;
17714;SDS011;8977;50.902;4.314;2023-06-24T03:51:46;7.15;;;3.70;;
17714;SDS011;8977;50.902;4.314;2023-06-24T03:54:14;5.40;;;3.47;;
17714;SDS011;8977;50.902;4.314;2023-06-24T03:56:41;5.07;;;4.10;;
17714;SDS011;8977;50.902;4.314;2023-06-24T03:59:08;6.13;;;3.70;;
17714;SDS011;8977;50.902;4.314;2023-06-24T04:01:35;6.85;;;4.40;;
17714;SDS011;8977;50.902;4.314;2023-06-24T04:04:04;9.85;;;3.50;;
17714;SDS011;8977;50.902;4.314;2023-06-24T04:06:31;8.43;;;4.53;;
17714;SDS011;8977;50.902;4.314;2023-06-24T04:08:58;5.28;;;4.22;;
17714;SDS011;8977;50.902;4.314;2023-06-24T04:11:24;4.95;;;4.45;;
17714;SDS011;8977;50.902;4.314;2023-06-24T04:13:52;6.22;;;4.30;;
17714;SDS011;8977;50.902;4.314;2023-06-24T04:16:19;5.78;;;3.90;;
17714;SDS011;8977;50.902;4.314;2023-06-24T04:18:47;6.22;;;3.80;;
17714;SDS011;8977;50.902;4.314;2023-06-24T04:21:15;6.20;;;4.03;;
17714;SDS011;8977;50.902;4.314;2023-06-24T04:23:42;6.20;;;4.20;;
17714;SDS011;8977;50.902;4.314;2023-06-24T04:26:10;4.00;;;3.50;;
17714;SDS011;8977;50.902;4.314;2023-06-24T04:28:36;5.60;;;3.60;;
17714;SDS011;8977;50.902;4.314;2023-06-24T04:31:05;6.85;;;3.88;;
17714;SDS011;8977;50.902;4.314;2023-06-24T04:33:33;5.28;;;3.97;;
17714;SDS011;8977;50.902;4.314;2023-06-24T04:35:59;5.00;;;3.78;;
17714;SDS011;8977;50.902;4.314;2023-06-24T04:38:28;5.45;;;4.10;;
17714;SDS011;8977;50.902;4.314;2023-06-24T04:40:54;6.38;;;3.90;;
17714;SDS011;8977;50.902;4.314;2023-06-24T04:43:22;4.43;;;3.50;;
17714;SDS011;8977;50.902;4.314;2023-06-24T04:45:49;4.97;;;4.20;;
17714;SDS011;8977;50.902;4.314;2023-06-24T04:48:16;5.07;;;3.63;;
17714;SDS011;8977;50.902;4.314;2023-06-24T04:50:43;7.13;;;4.03;;
17714;SDS011;8977;50.902;4.314;2023-06-24T04:53:09;7.22;;;4.13;;
17714;SDS011;8977;50.902;4.314;2023-06-24T04:55:38;5.95;;;4.40;;
17714;SDS011;8977;50.902;4.314;2023-06-24T04:58:04;5.68;;;4.20;;
17714;SDS011;8977;50.902;4.314;2023-06-24T05:00:31;5.10;;;4.38;;
17714;SDS011;8977;50.902;4.314;2023-06-24T05:02:58;5.75;;;4.22;;
17714;SDS011;8977;50.902;4.314;2023-06-24T05:05:25;6.05;;;4.25;;
17714;SDS011;8977;50.902;4.314;2023-06-24T05:07:52;6.20;;;4.25;;
17714;SDS011;8977;50.902;4.314;2023-06-24T05:10:19;5.68;;;4.45;;
17714;SDS011;8977;50.902;4.314;2023-06-24T05:12:47;5.82;;;4.10;;
17714;SDS011;8977;50.902;4.314;2023-06-24T05:15:14;5.40;;;4.72;;
17714;SDS011;8977;50.902;4.314;2023-06-24T05:17:42;8.82;;;4.63;;
17714;SDS011;8977;50.902;4.314;2023-06-24T05:20:09;4.78;;;4.20;;
17714;SDS011;8977;50.902;4.314;2023-06-24T05:22:36;4.10;;;3.40;;
17714;SDS011;8977;50.902;4.314;2023-06-24T05:25:03;5.82;;;3.50;;
17714;SDS011;8977;50.902;4.314;2023-06-24T05:27:31;6.03;;;3.97;;
17714;SDS011;8977;50.902;4.314;2023-06-24T05:29:59;4.35;;;3.83;;
17714;SDS011;8977;50.902;4.314;2023-06-24T05:32:26;5.93;;;4.57;;
17714;SDS011;8977;50.902;4.314;2023-06-24T05:34:53;4.60;;;4.10;;
17714;SDS011;8977;50.902;4.314;2023-06-24T05:37:20;5.72;;;3.97;;
17714;SDS011;8977;50.902;4.314;2023-06-24T05:39:46;4.85;;;4.05;;
17714;SDS011;8977;50.902;4.314;2023-06-24T05:42:13;5.30;;;3.80;;
17714;SDS011;8977;50.902;4.314;2023-06-24T05:44:40;4.85;;;4.05;;
17714;SDS011;8977;50.902;4.314;2023-06-24T05:47:08;5.18;;;3.78;;
17714;SDS011;8977;50.902;4.314;2023-06-24T05:49:35;6.93;;;4.22;;
17714;SDS011;8977;50.902;4.314;2023-06-24T05:52:02;5.70;;;4.45;;
17714;SDS011;8977;50.902;4.314;2023-06-24T05:54:29;4.53;;;3.85;;
17714;SDS011;8977;50.902;4.314;2023-06-24T05:56:56;4.65;;;3.97;;
17714;SDS011;8977;50.902;4.314;2023-06-24T05:59:23;4.35;;;3.95;;
17714;SDS011;8977;50.902;4.314;2023-06-24T06:01:50;5.28;;;4.00;;
17714;SDS011;8977;50.902;4.314;2023-06-24T06:04:18;5.15;;;4.35;;
17714;SDS011;8977;50.902;4.314;2023-06-24T06:06:45;5.93;;;4.35;;
17714;SDS011;8977;50.902;4.314;2023-06-24T06:09:12;5.03;;;3.80;;
17714;SDS011;8977;50.902;4.314;2023-06-24T06:11:38;4.78;;;4.18;;
17714;SDS011;8977;50.902;4.314;2023-06-24T06:14:05;7.10;;;4.15;;
17714;SDS011;8977;50.902;4.314;2023-06-24T06:16:32;5.70;;;4.28;;
17714;SDS011;8977;50.902;4.314;2023-06-24T06:18:59;5.22;;;4.70;;
17714;SDS011;8977;50.902;4.314;2023-06-24T06:21:27;5.57;;;3.72;;
17714;SDS011;8977;50.902;4.314;2023-06-24T06:23:54;4.13;;;3.72;;
17714;SDS011;8977;50.902;4.314;2023-06-24T06:26:21;4.72;;;3.97;;
17714;SDS011;8977;50.902;4.314;2023-06-24T06:28:48;4.72;;;3.90;;
17714;SDS011;8977;50.902;4.314;2023-06-24T06:31:15;6.22;;;3.97;;
17714;SDS011;8977;50.902;4.314;2023-06-24T06:33:42;6.25;;;3.83;;
17714;SDS011;8977;50.902;4.314;2023-06-24T06:36:09;5.75;;;4.22;;
17714;SDS011;8977;50.902;4.314;2023-06-24T06:38:37;5.95;;;3.83;;
17714;SDS011;8977;50.902;4.314;2023-06-24T06:41:07;6.15;;;3.90;;
17714;SDS011;8977;50.902;4.314;2023-06-24T06:43:34;5.53;;;4.05;;
17714;SDS011;8977;50.902;4.314;2023-06-24T06:46:01;4.57;;;3.72;;
17714;SDS011;8977;50.902;4.314;2023-06-24T06:48:28;4.55;;;4.10;;
17714;SDS011;8977;50.902;4.314;2023-06-24T06:50:55;4.05;;;3.75;;
17714;SDS011;8977;50.902;4.314;2023-06-24T06:53:22;5.40;;;3.72;;
17714;SDS011;8977;50.902;4.314;2023-06-24T06:55:50;3.65;;;3.35;;
17714;SDS011;8977;50.902;4.314;2023-06-24T06:58:17;4.00;;;3.53;;
17714;SDS011;8977;50.902;4.314;2023-06-24T07:00:44;4.75;;;3.58;;
17714;SDS011;8977;50.902;4.314;2023-06-24T07:03:11;4.25;;;3.60;;
17714;SDS011;8977;50.902;4.314;2023-06-24T07:05:38;4.65;;;3.63;;
17714;SDS011;8977;50.902;4.314;2023-06-24T07:08:05;3.47;;;3.10;;
17714;SDS011;8977;50.902;4.314;2023-06-24T07:10:32;3.58;;;3.05;;
17714;SDS011;8977;50.902;4.314;2023-06-24T07:13:00;5.18;;;3.38;;
17714;SDS011;8977;50.902;4.314;2023-06-24T07:15:27;4.95;;;3.35;;
17714;SDS011;8977;50.902;4.314;2023-06-24T07:17:54;3.75;;;3.25;;
17714;SDS011;8977;50.902;4.314;2023-06-24T07:20:21;3.78;;;3.35;;
17714;SDS011;8977;50.902;4.314;2023-06-24T07:22:48;4.78;;;3.47;;
17714;SDS011;8977;50.902;4.314;2023-06-24T07:25:15;3.58;;;3.17;;
17714;SDS011;8977;50.902;4.314;2023-06-24T07:27:42;3.60;;;3.20;;
17714;SDS011;8977;50.902;4.314;2023-06-24T07:30:10;3.88;;;3.47;;
17714;SDS011;8977;50.902;4.314;2023-06-24T07:32:37;4.30;;;3.22;;
17714;SDS011;8977;50.902;4.314;2023-06-24T07:35:05;4.85;;;3.20;;
17714;SDS011;8977;50.902;4.314;2023-06-24T07:37:32;4.30;;;3.30;;
17714;SDS011;8977;50.902;4.314;2023-06-24T07:40:00;4.07;;;3.03;;
17714;SDS011;8977;50.902;4.314;2023-06-24T07:42:27;4.82;;;3.00;;
17714;SDS011;8977;50.902;4.314;2023-06-24T07:44:54;3.90;;;3.03;;
17714;SDS011;8977;50.902;4.314;2023-06-24T07:47:22;4.53;;;3.20;;
17714;SDS011;8977;50.902;4.314;2023-06-24T07:49:49;3.22;;;2.83;;
17714;SDS011;8977;50.902;4.314;2023-06-24T07:52:15;4.88;;;3.00;;
17714;SDS011;8977;50.902;4.314;2023-06-24T07:54:42;3.95;;;3.10;;
17714;SDS011;8977;50.902;4.314;2023-06-24T07:57:09;5.53;;;2.72;;
17714;SDS011;8977;50.902;4.314;2023-06-24T07:59:36;3.28;;;2.97;;
17714;SDS011;8977;50.902;4.314;2023-06-24T08:02:03;3.05;;;2.70;;
17714;SDS011;8977;50.902;4.314;2023-06-24T08:04:31;4.00;;;2.65;;
17714;SDS011;8977;50.902;4.314;2023-06-24T08:06:58;4.32;;;2.70;;
17714;SDS011;8977;50.902;4.314;2023-06-24T08:09:25;4.25;;;2.95;;
17714;SDS011;8977;50.902;4.314;2023-06-24T08:11:52;3.13;;;2.83;;
17714;SDS011;8977;50.902;4.314;2023-06-24T08:14:19;3.22;;;2.90;;
17714;SDS011;8977;50.902;4.314;2023-06-24T08:16:45;6.95;;;3.08;;
17714;SDS011;8977;50.902;4.314;2023-06-24T08:19:12;3.72;;;2.88;;
17714;SDS011;8977;50.902;4.314;2023-06-24T08:21:40;3.05;;;2.78;;
17714;SDS011;8977;50.902;4.314;2023-06-24T08:24:07;4.68;;;2.70;;
17714;SDS011;8977;50.902;4.314;2023-06-24T08:26:35;3.97;;;2.92;;
17714;SDS011;8977;50.902;4.314;2023-06-24T08:29:02;3.10;;;2.80;;
17714;SDS011;8977;50.902;4.314;2023-06-24T08:31:29;5.28;;;3.10;;
17714;SDS011;8977;50.902;4.314;2023-06-24T08:33:58;4.05;;;2.65;;
17714;SDS011;8977;50.902;4.314;2023-06-24T08:36:27;2.85;;;2.60;;
17714;SDS011;8977;50.902;4.314;2023-06-24T08:38:56;3.47;;;2.50;;
17714;SDS011;8977;50.902;4.314;2023-06-24T08:41:23;3.38;;;2.70;;
17714;SDS011;8977;50.902;4.314;2023-06-24T08:43:51;2.83;;;2.20;;
17714;SDS011;8977;50.902;4.314;2023-06-24T08:46:18;2.90;;;2.33;;
17714;SDS011;8977;50.902;4.314;2023-06-24T08:48:47;2.30;;;2.10;;
17714;SDS011;8977;50.902;4.314;2023-06-24T08:51:17;2.30;;;2.10;;
17714;SDS011;8977;50.902;4.314;2023-06-24T08:53:46;4.05;;;2.28;;
17714;SDS011;8977;50.902;4.314;2023-06-24T08:56:16;2.60;;;2.38;;
17714;SDS011;8977;50.902;4.314;2023-06-24T08:58:43;2.90;;;2.60;;
17714;SDS011;8977;50.902;4.314;2023-06-24T09:01:10;2.65;;;2.33;;
17714;SDS011;8977;50.902;4.314;2023-06-24T09:03:37;2.55;;;2.35;;
17714;SDS011;8977;50.902;4.314;2023-06-24T09:06:04;3.08;;;2.28;;
17714;SDS011;8977;50.902;4.314;2023-06-24T09:08:32;2.50;;;2.20;;
17714;SDS011;8977;50.902;4.314;2023-06-24T09:11:00;3.83;;;2.00;;
17714;SDS011;8977;50.902;4.314;2023-06-24T09:13:34;1.85;;;1.75;;
17714;SDS011;8977;50.902;4.314;2023-06-24T09:16:08;3.72;;;2.22;;
17714;SDS011;8977;50.902;4.314;2023-06-24T09:18:38;2.55;;;2.30;;
17714;SDS011;8977;50.902;4.314;2023-06-24T09:21:05;2.97;;;2.10;;
17714;SDS011;8977;50.902;4.314;2023-06-24T09:23:35;2.80;;;2.10;;
17714;SDS011;8977;50.902;4.314;2023-06-24T09:26:03;2.65;;;2.17;;
17714;SDS011;8977;50.902;4.314;2023-06-24T09:28:31;3.72;;;2.28;;
17714;SDS011;8977;50.902;4.314;2023-06-24T09:31:06;2.13;;;1.98;;
17714;SDS011;8977;50.902;4.314;2023-06-24T09:33:33;3.42;;;1.90;;
17714;SDS011;8977;50.902;4.314;2023-06-24T09:36:01;2.70;;;2.10;;
17714;SDS011;8977;50.902;4.314;2023-06-24T09:38:32;3.10;;;1.83;;
17714;SDS011;8977;50.902;4.314;2023-06-24T09:41:01;2.20;;;1.95;;
17714;SDS011;8977;50.902;4.314;2023-06-24T09:43:30;2.22;;;2.00;;
17714;SDS011;8977;50.902;4.314;2023-06-24T09:45:57;2.78;;;2.13;;
17714;SDS011;8977;50.902;4.314;2023-06-24T09:48:26;1.95;;;1.77;;
17714;SDS011;8977;50.902;4.314;2023-06-24T09:50:53;2.38;;;2.05;;
17714;SDS011;8977;50.902;4.314;2023-06-24T09:53:20;2.70;;;2.10;;
17714;SDS011;8977;50.902;4.314;2023-06-24T09:55:48;2.22;;;1.98;;
17714;SDS011;8977;50.902;4.314;2023-06-24T09:58:16;2.30;;;1.67;;
17714;SDS011;8977;50.902;4.314;2023-06-24T10:00:45;2.20;;;1.80;;
17714;SDS011;8977;50.902;4.314;2023-06-24T10:03:12;2.67;;;2.03;;
17714;SDS011;8977;50.902;4.314;2023-06-24T10:05:41;2.08;;;1.80;;
17714;SDS011;8977;50.902;4.314;2023-06-24T10:08:09;2.97;;;2.45;;
17714;SDS011;8977;50.902;4.314;2023-06-24T10:10:37;2.90;;;2.35;;
17714;SDS011;8977;50.902;4.314;2023-06-24T10:13:04;2.58;;;2.00;;
17714;SDS011;8977;50.902;4.314;2023-06-24T10:15:31;2.72;;;1.85;;
17714;SDS011;8977;50.902;4.314;2023-06-24T10:18:00;2.17;;;1.85;;
17714;SDS011;8977;50.902;4.314;2023-06-24T10:20:28;2.05;;;1.85;;
17714;SDS011;8977;50.902;4.314;2023-06-24T10:22:56;2.22;;;1.85;;
17714;SDS011;8977;50.902;4.314;2023-06-24T10:25:24;4.35;;;2.20;;
17714;SDS011;8977;50.902;4.314;2023-06-24T10:28:01;3.20;;;1.73;;
17714;SDS011;8977;50.902;4.314;2023-06-24T10:30:28;2.53;;;2.33;;
17714;SDS011;8977;50.902;4.314;2023-06-24T10:32:58;2.42;;;2.17;;
17714;SDS011;8977;50.902;4.314;2023-06-24T10:35:26;2.33;;;1.95;;
17714;SDS011;8977;50.902;4.314;2023-06-24T10:37:56;3.65;;;2.03;;
17714;SDS011;8977;50.902;4.314;2023-06-24T10:40:34;2.30;;;1.90;;
17714;SDS011;8977;50.902;4.314;2023-06-24T10:43:04;2.35;;;1.73;;
17714;SDS011;8977;50.902;4.314;2023-06-24T10:45:51;2.20;;;2.00;;
17714;SDS011;8977;50.902;4.314;2023-06-24T10:48:19;3.20;;;2.08;;
17714;SDS011;8977;50.902;4.314;2023-06-24T10:50:46;1.67;;;1.58;;
17714;SDS011;8977;50.902;4.314;2023-06-24T10:53:15;2.22;;;1.80;;
17714;SDS011;8977;50.902;4.314;2023-06-24T10:55:44;2.03;;;1.90;;
17714;SDS011;8977;50.902;4.314;2023-06-24T10:58:12;2.42;;;1.92;;
17714;SDS011;8977;50.902;4.314;2023-06-24T11:00:40;2.28;;;2.05;;
17714;SDS011;8977;50.902;4.314;2023-06-24T11:03:08;1.70;;;1.60;;
17714;SDS011;8977;50.902;4.314;2023-06-24T11:05:37;1.95;;;1.80;;
17714;SDS011;8977;50.902;4.314;2023-06-24T11:08:05;2.10;;;1.90;;
17714;SDS011;8977;50.902;4.314;2023-06-24T11:10:34;3.78;;;1.80;;
17714;SDS011;8977;50.902;4.314;2023-06-24T11:13:09;3.92;;;1.90;;
17714;SDS011;8977;50.902;4.314;2023-06-24T11:15:36;1.95;;;1.70;;
17714;SDS011;8977;50.902;4.314;2023-06-24T11:18:04;2.17;;;1.98;;
17714;SDS011;8977;50.902;4.314;2023-06-24T11:20:33;4.28;;;2.00;;
17714;SDS011;8977;50.902;4.314;2023-06-24T11:23:01;2.30;;;1.88;;
17714;SDS011;8977;50.902;4.314;2023-06-24T11:25:28;2.20;;;1.90;;
17714;SDS011;8977;50.902;4.314;2023-06-24T11:27:56;2.20;;;2.00;;
17714;SDS011;8977;50.902;4.314;2023-06-24T11:30:23;2.83;;;2.20;;
17714;SDS011;8977;50.902;4.314;2023-06-24T11:32:51;2.45;;;1.88;;
17714;SDS011;8977;50.902;4.314;2023-06-24T11:35:18;3.38;;;1.75;;
17714;SDS011;8977;50.902;4.314;2023-06-24T11:37:46;2.03;;;1.88;;
17714;SDS011;8977;50.902;4.314;2023-06-24T11:40:16;2.33;;;1.85;;
17714;SDS011;8977;50.902;4.314;2023-06-24T11:42:44;2.17;;;1.98;;
17714;SDS011;8977;50.902;4.314;2023-06-24T11:45:14;2.55;;;1.88;;
17714;SDS011;8977;50.902;4.314;2023-06-24T11:47:46;2.00;;;1.83;;
17714;SDS011;8977;50.902;4.314;2023-06-24T11:50:13;2.30;;;2.10;;
17714;SDS011;8977;50.902;4.314;2023-06-24T11:52:41;2.67;;;2.13;;
17714;SDS011;8977;50.902;4.314;2023-06-24T11:55:12;3.58;;;2.10;;
17714;SDS011;8977;50.902;4.314;2023-06-24T11:57:53;2.22;;;2.03;;
17714;SDS011;8977;50.902;4.314;2023-06-24T12:00:22;2.92;;;2.30;;
17714;SDS011;8977;50.902;4.314;2023-06-24T12:02:51;4.25;;;3.28;;
17714;SDS011;8977;50.902;4.314;2023-06-24T12:05:20;3.92;;;2.65;;
17714;SDS011;8977;50.902;4.314;2023-06-24T12:07:55;6.60;;;2.10;;
17714;SDS011;8977;50.902;4.314;2023-06-24T12:10:23;2.88;;;2.00;;
17714;SDS011;8977;50.902;4.314;2023-06-24T12:12:50;2.03;;;1.90;;
17714;SDS011;8977;50.902;4.314;2023-06-24T12:15:17;2.53;;;2.10;;
17714;SDS011;8977;50.902;4.314;2023-06-24T12:17:45;2.35;;;2.15;;
17714;SDS011;8977;50.902;4.314;2023-06-24T12:20:13;2.63;;;2.42;;
17714;SDS011;8977;50.902;4.314;2023-06-24T12:22:40;3.63;;;2.22;;
17714;SDS011;8977;50.902;4.314;2023-06-24T12:25:07;2.42;;;2.00;;
17714;SDS011;8977;50.902;4.314;2023-06-24T12:27:35;2.20;;;2.00;;
17714;SDS011;8977;50.902;4.314;2023-06-24T12:30:02;3.42;;;2.00;;
17714;SDS011;8977;50.902;4.314;2023-06-24T12:32:29;3.13;;;2.17;;
17714;SDS011;8977;50.902;4.314;2023-06-24T12:34:57;2.10;;;1.83;;
17714;SDS011;8977;50.902;4.314;2023-06-24T12:37:24;2.33;;;1.70;;
17714;SDS011;8977;50.902;4.314;2023-06-24T12:39:51;3.10;;;1.90;;
17714;SDS011;8977;50.902;4.314;2023-06-24T12:42:18;1.90;;;1.80;;
17714;SDS011;8977;50.902;4.314;2023-06-24T12:44:45;2.30;;;2.00;;
17714;SDS011;8977;50.902;4.314;2023-06-24T12:47:11;4.45;;;1.77;;
17714;SDS011;8977;50.902;4.314;2023-06-24T12:49:38;2.38;;;2.15;;
17714;SDS011;8977;50.902;4.314;2023-06-24T12:52:07;2.33;;;2.00;;
17714;SDS011;8977;50.902;4.314;2023-06-24T12:54:33;2.65;;;2.10;;
17714;SDS011;8977;50.902;4.314;2023-06-24T12:57:00;1.98;;;1.77;;
17714;SDS011;8977;50.902;4.314;2023-06-24T12:59:27;2.30;;;2.10;;
17714;SDS011;8977;50.902;4.314;2023-06-24T13:01:54;3.70;;;2.40;;
17714;SDS011;8977;50.902;4.314;2023-06-24T13:04:21;2.80;;;2.03;;
17714;SDS011;8977;50.902;4.314;2023-06-24T13:06:49;3.97;;;2.20;;
17714;SDS011;8977;50.902;4.314;2023-06-24T13:09:18;1.95;;;1.80;;
17714;SDS011;8977;50.902;4.314;2023-06-24T13:11:45;3.83;;;1.95;;
17714;SDS011;8977;50.902;4.314;2023-06-24T13:14:13;2.40;;;2.03;;
17714;SDS011;8977;50.902;4.314;2023-06-24T13:16:40;2.28;;;1.90;;
17714;SDS011;8977;50.902;4.314;2023-06-24T13:19:06;2.40;;;2.20;;
17714;SDS011;8977;50.902;4.314;2023-06-24T13:21:33;4.03;;;1.90;;
17714;SDS011;8977;50.902;4.314;2023-06-24T13:24:00;1.95;;;1.80;;
17714;SDS011;8977;50.902;4.314;2023-06-24T13:26:28;2.17;;;1.67;;
17714;SDS011;8977;50.902;4.314;2023-06-24T13:28:55;3.47;;;1.83;;
17714;SDS011;8977;50.902;4.314;2023-06-24T13:31:22;2.35;;;1.98;;
17714;SDS011;8977;50.902;4.314;2023-06-24T13:33:49;2.50;;;2.25;;
17714;SDS011;8977;50.902;4.314;2023-06-24T13:36:28;1.77;;;1.67;;
17714;SDS011;8977;50.902;4.314;2023-06-24T13:38:57;1.70;;;1.60;;
17714;SDS011;8977;50.902;4.314;2023-06-24T13:41:24;24.05;;;17.75;;
17714;SDS011;8977;50.902;4.314;2023-06-24T13:43:55;16.83;;;13.27;;
17714;SDS011;8977;50.902;4.314;2023-06-24T13:46:22;7.72;;;6.25;;
17714;SDS011;8977;50.902;4.314;2023-06-24T13:48:49;3.60;;;3.00;;
17714;SDS011;8977;50.902;4.314;2023-06-24T13:51:17;4.30;;;3.90;;
17714;SDS011;8977;50.902;4.314;2023-06-24T13:53:45;3.78;;;3.08;;
17714;SDS011;8977;50.902;4.314;2023-06-24T13:56:13;2.88;;;2.40;;
17714;SDS011;8977;50.902;4.314;2023-06-24T13:58:40;2.47;;;2.00;;
17714;SDS011;8977;50.902;4.314;2023-06-24T14:01:08;2.88;;;2.63;;
17714;SDS011;8977;50.902;4.314;2023-06-24T14:03:35;2.35;;;2.20;;
17714;SDS011;8977;50.902;4.314;2023-06-24T14:06:02;2.65;;;2.45;;
17714;SDS011;8977;50.902;4.314;2023-06-24T14:08:30;3.83;;;3.10;;
17714;SDS011;8977;50.902;4.314;2023-06-24T14:10:58;3.22;;;2.90;;
17714;SDS011;8977;50.902;4.314;2023-06-24T14:13:25;3.38;;;2.20;;
17714;SDS011;8977;50.902;4.314;2023-06-24T14:15:52;2.30;;;1.90;;
17714;SDS011;8977;50.902;4.314;2023-06-24T14:18:20;2.30;;;1.83;;
17714;SDS011;8977;50.902;4.314;2023-06-24T14:20:48;2.72;;;1.80;;
17714;SDS011;8977;50.902;4.314;2023-06-24T14:23:15;2.38;;;2.17;;
17714;SDS011;8977;50.902;4.314;2023-06-24T14:25:42;2.45;;;2.20;;
17714;SDS011;8977;50.902;4.314;2023-06-24T14:28:08;4.50;;;4.07;;
17714;SDS011;8977;50.902;4.314;2023-06-24T14:30:35;5.13;;;3.30;;
17714;SDS011;8977;50.902;4.314;2023-06-24T14:33:02;2.67;;;2.47;;
17714;SDS011;8977;50.902;4.314;2023-06-24T14:35:30;3.33;;;2.25;;
17714;SDS011;8977;50.902;4.314;2023-06-24T14:37:57;2.45;;;2.15;;
17714;SDS011;8977;50.902;4.314;2023-06-24T14:40:24;2.58;;;2.00;;
17714;SDS011;8977;50.902;4.314;2023-06-24T14:42:51;2.45;;;2.00;;
17714;SDS011;8977;50.902;4.314;2023-06-24T14:45:18;2.45;;;2.17;;
17714;SDS011;8977;50.902;4.314;2023-06-24T14:47:45;2.72;;;2.50;;
17714;SDS011;8977;50.902;4.314;2023-06-24T14:50:12;3.50;;;3.08;;
17714;SDS011;8977;50.902;4.314;2023-06-24T14:52:41;2.47;;;2.10;;
17714;SDS011;8977;50.902;4.314;2023-06-24T14:55:08;2.05;;;1.85;;
17714;SDS011;8977;50.902;4.314;2023-06-24T14:57:35;3.03;;;1.80;;
17714;SDS011;8977;50.902;4.314;2023-06-24T15:00:04;2.28;;;2.03;;
17714;SDS011;8977;50.902;4.314;2023-06-24T15:02:32;2.15;;;1.80;;
17714;SDS011;8977;50.902;4.314;2023-06-24T15:05:00;2.13;;;1.92;;
17714;SDS011;8977;50.902;4.314;2023-06-24T15:07:27;2.80;;;2.30;;
17714;SDS011;8977;50.902;4.314;2023-06-24T15:09:55;1.95;;;1.70;;